Time;durP1;ratioP1;P1;durP2;ratioP2;P2;SDS_P1;SDS_P2;PMS_P1;PMS_P2;Temp;Humidity;BMP_temperature;BMP_pressure;BME280_temperature;BME280_humidity;BME280_pressure;Samples;Min_cycle;Max_cycle;Signal;HPM_P1;HPM_P2
2022/07/01 00:02:07;;;;;;;11.37;7.43;;;17.70;96.80;;;;;;5048070;28;20458;-68
2022/07/01 00:04:34;;;;;;;8.77;7.90;;;17.70;96.40;;;;;;5048388;28;20467;-68
2022/07/01 00:07:00;;;;;;;10.30;8.07;;;17.70;96.20;;;;;;5046642;28;20845;-68
2022/07/01 00:09:28;;;;;;;7.80;7.00;;;17.60;96.30;;;;;;5039874;28;20443;-68
2022/07/01 00:11:55;;;;;;;10.20;7.37;;;17.60;96.30;;;;;;5039193;28;20541;-67
2022/07/01 00:14:23;;;;;;;9.87;8.80;;;17.60;96.40;;;;;;5045030;28;20486;-67
2022/07/01 00:16:50;;;;;;;8.03;7.23;;;17.50;96.40;;;;;;5045637;28;20840;-67
2022/07/01 00:19:17;;;;;;;9.10;7.70;;;17.40;96.50;;;;;;5046867;28;20468;-67
2022/07/01 00:21:43;;;;;;;7.50;6.80;;;17.30;96.70;;;;;;5047313;28;20454;-68
2022/07/01 00:24:10;;;;;;;7.50;6.80;;;17.30;96.80;;;;;;5047995;28;20475;-68
2022/07/01 00:26:37;;;;;;;8.87;7.97;;;17.20;96.50;;;;;;5047772;28;20446;-68
2022/07/01 00:29:04;;;;;;;8.70;7.20;;;17.20;96.80;;;;;;5047532;28;20457;-68
2022/07/01 00:31:32;;;;;;;7.83;6.87;;;17.20;97.00;;;;;;5047425;28;20513;-67
2022/07/01 00:33:59;;;;;;;8.30;7.43;;;17.20;97.20;;;;;;5047257;28;20458;-68
2022/07/01 00:36:26;;;;;;;7.67;6.87;;;17.30;96.80;;;;;;5047728;28;20442;-68
2022/07/01 00:38:52;;;;;;;9.23;7.17;;;17.20;96.80;;;;;;5048195;28;20450;-67
2022/07/01 00:41:19;;;;;;;11.33;6.90;;;17.20;97.00;;;;;;5047598;28;20458;-68
2022/07/01 00:43:46;;;;;;;9.63;7.30;;;17.30;96.80;;;;;;5047629;28;20477;-68
2022/07/01 00:46:13;;;;;;;8.30;6.00;;;17.40;97.00;;;;;;5047110;28;20536;-68
2022/07/01 00:48:41;;;;;;;7.90;7.10;;;17.40;96.50;;;;;;5046913;28;20458;-68
2022/07/01 00:51:08;;;;;;;10.60;7.03;;;17.50;96.40;;;;;;5047507;28;20453;-68
2022/07/01 00:53:36;;;;;;;7.50;6.77;;;17.60;96.30;;;;;;5047621;28;20501;-68
2022/07/01 00:56:03;;;;;;;11.87;7.40;;;17.60;96.40;;;;;;5047429;28;20478;-68
2022/07/01 00:58:30;;;;;;;9.90;6.70;;;17.50;96.20;;;;;;5047169;28;20451;-68
2022/07/01 01:00:58;;;;;;;9.20;6.50;;;17.60;96.70;;;;;;5047414;28;20443;-68
2022/07/01 01:03:26;;;;;;;9.40;7.17;;;17.60;96.60;;;;;;5047464;28;20463;-67
2022/07/01 01:05:56;;;;;;;9.20;8.30;;;17.50;96.30;;;;;;5046213;28;20946;-67
2022/07/01 01:08:25;;;;;;;9.00;7.80;;;17.50;96.20;;;;;;5046935;28;20431;-67
2022/07/01 01:10:53;;;;;;;10.30;8.17;;;17.40;96.40;;;;;;5045932;28;20518;-67
2022/07/01 01:13:20;;;;;;;8.37;7.57;;;17.20;96.60;;;;;;5046526;28;20451;-67
2022/07/01 01:15:47;;;;;;;9.93;7.77;;;17.20;96.80;;;;;;5046456;28;21023;-67
2022/07/01 01:18:13;;;;;;;10.87;7.73;;;17.10;96.90;;;;;;5046623;28;21004;-67
2022/07/01 01:20:41;;;;;;;9.93;8.20;;;17.10;97.20;;;;;;5046165;28;20449;-68
2022/07/01 01:23:08;;;;;;;10.80;7.90;;;17.10;97.40;;;;;;5044172;28;20445;-68
2022/07/01 01:25:35;;;;;;;8.40;7.50;;;17.10;97.40;;;;;;5046418;28;20450;-68
2022/07/01 01:28:03;;;;;;;10.80;7.53;;;17.10;97.10;;;;;;5045696;28;20525;-68
2022/07/01 01:30:30;;;;;;;9.13;8.10;;;17.10;97.10;;;;;;5046417;28;20445;-68
2022/07/01 01:32:57;;;;;;;9.10;8.00;;;17.10;97.00;;;;;;5046712;28;20442;-67
2022/07/01 01:35:24;;;;;;;9.80;7.83;;;17.00;97.20;;;;;;5046230;28;20510;-68
2022/07/01 01:37:52;;;;;;;10.27;8.87;;;17.00;97.10;;;;;;5045920;28;20596;-68
2022/07/01 01:40:20;;;;;;;11.80;8.30;;;16.90;96.80;;;;;;5045997;28;20473;-68
2022/07/01 01:42:47;;;;;;;10.10;8.53;;;16.90;97.10;;;;;;5046497;28;20478;-67
2022/07/01 01:45:14;;;;;;;12.90;9.60;;;16.90;97.20;;;;;;5046862;28;20473;-67
2022/07/01 01:47:41;;;;;;;9.77;7.60;;;16.90;97.30;;;;;;5047770;28;20446;-67
2022/07/01 01:50:09;;;;;;;9.70;7.60;;;17.00;97.40;;;;;;5044690;28;20457;-67
2022/07/01 01:52:37;;;;;;;9.33;8.43;;;17.10;97.60;;;;;;5046155;28;20454;-67
2022/07/01 01:55:06;;;;;;;13.83;8.70;;;17.30;97.60;;;;;;5045981;28;20495;-68
2022/07/01 01:57:33;;;;;;;10.37;7.10;;;17.40;97.10;;;;;;5046046;28;20446;-68
2022/07/01 02:00:00;;;;;;;10.17;6.80;;;17.40;96.60;;;;;;5046469;28;20523;-68
2022/07/01 02:02:27;;;;;;;10.47;8.27;;;17.50;96.30;;;;;;5046119;28;20461;-68
2022/07/01 02:04:54;;;;;;;10.80;8.33;;;17.60;96.40;;;;;;5046823;28;20539;-67
2022/07/01 02:07:20;;;;;;;8.20;7.47;;;17.60;96.00;;;;;;5046819;28;20457;-67
2022/07/01 02:09:47;;;;;;;12.03;7.93;;;17.60;95.80;;;;;;5045440;28;20454;-67
2022/07/01 02:12:16;;;;;;;9.60;7.93;;;17.60;96.00;;;;;;5046037;28;20447;-67
2022/07/01 02:14:42;;;;;;;9.40;7.30;;;17.60;96.00;;;;;;5046296;28;20482;-67
2022/07/01 02:17:09;;;;;;;9.30;6.87;;;17.60;96.00;;;;;;5046083;28;20453;-67
2022/07/01 02:19:36;;;;;;;10.07;6.57;;;17.60;95.80;;;;;;5046904;28;20451;-68
2022/07/01 02:22:03;;;;;;;8.97;7.67;;;17.60;95.80;;;;;;5045600;28;20447;-67
2022/07/01 02:24:29;;;;;;;17.73;7.70;;;17.60;95.70;;;;;;5045419;28;20474;-68
2022/07/01 02:26:56;;;;;;;9.10;7.10;;;17.60;95.80;;;;;;5045654;28;20450;-68
2022/07/01 02:29:24;;;;;;;9.53;6.57;;;17.60;96.20;;;;;;5045566;28;20506;-68
2022/07/01 02:31:51;;;;;;;10.03;7.10;;;17.60;96.40;;;;;;5045811;28;20450;-67
2022/07/01 02:34:18;;;;;;;9.60;6.80;;;17.60;96.20;;;;;;5045117;28;20486;-67
2022/07/01 02:36:44;;;;;;;9.23;5.87;;;17.60;96.10;;;;;;5045140;28;20482;-68
2022/07/01 02:39:11;;;;;;;6.23;5.50;;;17.50;95.80;;;;;;5045361;28;20449;-68
2022/07/01 02:44:19;;;;;;;6.43;5.30;;;17.40;95.70;;;;;;5044177;28;20446;-67
2022/07/01 02:46:47;;;;;;;7.20;4.50;;;17.40;95.80;;;;;;5044301;28;20448;-67
2022/07/01 02:49:14;;;;;;;9.93;3.93;;;17.40;95.70;;;;;;5045912;28;20459;-67
2022/07/01 02:51:41;;;;;;;6.70;5.00;;;17.30;95.60;;;;;;5044922;28;20442;-68
2022/07/01 02:54:08;;;;;;;6.07;4.90;;;17.40;95.80;;;;;;5045597;28;20476;-68
2022/07/01 02:56:35;;;;;;;8.43;4.70;;;17.40;95.90;;;;;;5043904;28;20475;-68
2022/07/01 02:59:02;;;;;;;13.83;5.00;;;17.40;95.80;;;;;;5043567;28;20480;-67
2022/07/01 03:01:28;;;;;;;5.50;5.00;;;17.40;95.80;;;;;;5043989;28;20447;-67
2022/07/01 03:03:56;;;;;;;7.30;4.70;;;17.40;95.50;;;;;;5044763;28;20520;-67
2022/07/01 03:06:23;;;;;;;6.77;4.53;;;17.40;95.80;;;;;;5045818;28;20541;-67
2022/07/01 03:08:50;;;;;;;8.53;4.47;;;17.40;95.80;;;;;;5046487;28;20447;-67
2022/07/01 03:11:17;;;;;;;5.57;3.83;;;17.30;95.60;;;;;;5046353;28;20453;-67
2022/07/01 03:13:44;;;;;;;6.60;3.83;;;17.20;95.80;;;;;;5045713;28;20504;-67
2022/07/01 03:16:11;;;;;;;6.23;3.13;;;17.30;95.90;;;;;;5046791;28;20501;-67
2022/07/01 03:18:38;;;;;;;3.90;3.03;;;17.30;95.90;;;;;;5046039;28;20450;-67
2022/07/01 03:21:06;;;;;;;6.10;3.37;;;17.30;95.80;;;;;;5045395;28;20455;-67
2022/07/01 03:23:32;;;;;;;7.00;4.23;;;17.30;95.80;;;;;;5046078;28;20466;-67
2022/07/01 03:25:59;;;;;;;5.43;3.57;;;17.40;95.90;;;;;;5045581;28;20454;-67
2022/07/01 03:28:26;;;;;;;5.37;3.47;;;17.40;95.90;;;;;;5046683;28;20458;-67
2022/07/01 03:30:53;;;;;;;4.43;3.03;;;17.50;95.80;;;;;;5046290;28;20798;-67
2022/07/01 03:33:19;;;;;;;3.67;3.37;;;17.40;95.50;;;;;;5045739;28;20449;-68
2022/07/01 03:35:46;;;;;;;9.57;4.03;;;17.50;95.60;;;;;;5045983;28;20490;-67
2022/07/01 03:38:14;;;;;;;8.03;2.80;;;17.50;95.40;;;;;;5044134;28;20922;-67
2022/07/01 03:40:41;;;;;;;7.10;3.73;;;17.50;95.10;;;;;;5043234;28;20525;-67
2022/07/01 03:43:09;;;;;;;7.03;3.03;;;17.50;95.20;;;;;;5044083;28;20454;-67
2022/07/01 03:45:35;;;;;;;5.50;3.37;;;17.50;94.90;;;;;;5046431;28;20950;-67
2022/07/01 03:48:03;;;;;;;8.43;3.57;;;17.50;95.10;;;;;;5046771;28;20945;-67
2022/07/01 03:50:29;;;;;;;8.50;3.63;;;17.50;95.00;;;;;;5046256;28;20450;-67
2022/07/01 03:55:42;;;;;;;6.10;3.33;;;17.50;94.80;;;;;;5035697;28;20877;-67
2022/07/01 03:58:10;;;;;;;6.67;3.63;;;17.40;94.70;;;;;;5037154;28;20522;-67
2022/07/01 04:00:38;;;;;;;8.30;3.50;;;17.40;94.90;;;;;;5049438;28;20450;-67
2022/07/01 04:03:06;;;;;;;5.97;3.33;;;17.20;95.00;;;;;;5049153;28;20822;-67
2022/07/01 04:05:35;;;;;;;4.10;3.13;;;17.20;95.40;;;;;;5050230;28;20519;-67
2022/07/01 04:08:03;;;;;;;3.70;3.30;;;17.10;94.90;;;;;;5050434;28;20447;-67
2022/07/01 04:10:31;;;;;;;7.73;3.97;;;17.10;95.10;;;;;;5050401;28;20461;-67
2022/07/01 04:13:00;;;;;;;6.83;2.93;;;17.10;95.40;;;;;;5051182;28;20477;-67
2022/07/01 04:15:26;;;;;;;8.03;3.60;;;17.10;95.70;;;;;;5050243;28;20478;-67
2022/07/01 04:17:53;;;;;;;10.10;3.53;;;17.00;95.90;;;;;;5050472;28;20453;-67
2022/07/01 04:20:20;;;;;;;6.60;3.20;;;17.00;95.90;;;;;;5050647;28;20446;-67
2022/07/01 04:22:46;;;;;;;9.77;3.53;;;17.00;95.80;;;;;;5050723;28;20454;-67
2022/07/01 04:25:13;;;;;;;9.40;3.30;;;16.90;96.20;;;;;;5049736;28;20573;-67
2022/07/01 04:27:40;;;;;;;8.23;3.53;;;16.80;96.40;;;;;;5049134;28;20215;-67
2022/07/01 04:30:09;;;;;;;5.87;4.10;;;16.90;96.70;;;;;;5049030;28;20449;-67
2022/07/01 04:32:36;;;;;;;5.00;2.80;;;16.90;96.70;;;;;;5049750;28;20450;-67
2022/07/01 04:35:04;;;;;;;6.00;3.30;;;16.90;96.50;;;;;;5050346;28;20477;-67
2022/07/01 04:37:31;;;;;;;7.30;2.90;;;16.80;96.10;;;;;;5050300;28;20466;-67
2022/07/01 04:39:58;;;;;;;6.40;3.60;;;16.80;96.40;;;;;;5050472;28;20904;-67
2022/07/01 04:42:25;;;;;;;5.50;3.83;;;16.80;96.70;;;;;;5050487;28;20431;-67
2022/07/01 04:44:51;;;;;;;10.77;3.83;;;16.80;96.80;;;;;;5049654;28;20471;-67
2022/07/01 04:47:20;;;;;;;8.20;3.40;;;16.80;96.50;;;;;;5050795;28;20445;-67
2022/07/01 04:49:47;;;;;;;5.97;3.83;;;16.90;96.50;;;;;;5049830;28;20954;-67
2022/07/01 04:52:14;;;;;;;5.60;3.03;;;16.90;96.50;;;;;;5049283;28;20453;-67
2022/07/01 04:54:41;;;;;;;6.97;3.90;;;16.90;96.80;;;;;;5049331;28;20845;-68
2022/07/01 04:57:08;;;;;;;9.87;3.57;;;16.90;96.60;;;;;;5048578;28;20478;-67
2022/07/01 04:59:36;;;;;;;5.00;3.40;;;16.90;96.80;;;;;;5049647;28;20480;-67
2022/07/01 05:02:03;;;;;;;5.27;2.93;;;16.90;96.80;;;;;;5049049;28;20482;-67
2022/07/01 05:04:31;;;;;;;5.40;2.60;;;16.80;97.00;;;;;;5048303;28;20473;-67
2022/07/01 05:06:58;;;;;;;5.70;2.83;;;16.90;96.50;;;;;;5047906;28;20934;-67
2022/07/01 05:09:24;;;;;;;7.50;3.43;;;16.90;96.40;;;;;;5047231;28;20456;-67
2022/07/01 05:11:51;;;;;;;7.80;3.70;;;16.90;96.60;;;;;;5047206;28;20450;-67
2022/07/01 05:14:18;;;;;;;5.60;3.80;;;16.90;96.80;;;;;;5046577;28;20473;-67
2022/07/01 05:16:45;;;;;;;8.03;3.40;;;16.90;96.90;;;;;;5047398;28;20478;-67
2022/07/01 05:22:00;;;;;;;6.10;4.20;;;16.90;97.20;;;;;;5029281;28;20430;-67
2022/07/01 05:24:30;;;;;;;6.30;4.10;;;16.90;97.10;;;;;;5046479;28;20473;-67
2022/07/01 05:26:57;;;;;;;5.43;4.27;;;16.90;97.10;;;;;;5047199;28;20427;-67
2022/07/01 05:29:24;;;;;;;7.23;5.20;;;17.00;96.60;;;;;;5029177;28;20446;-67
2022/07/01 05:31:51;;;;;;;7.43;4.00;;;16.90;96.70;;;;;;5045737;28;20451;-67
2022/07/01 05:34:17;;;;;;;4.87;4.43;;;16.90;96.80;;;;;;5045443;28;20473;-67
2022/07/01 05:36:44;;;;;;;8.57;4.57;;;17.00;96.90;;;;;;5046110;28;20486;-68
2022/07/01 05:39:12;;;;;;;6.13;4.20;;;17.00;97.00;;;;;;5046039;28;20446;-68
2022/07/01 05:41:39;;;;;;;7.23;4.20;;;17.00;96.60;;;;;;5046480;28;20485;-68
2022/07/01 05:44:06;;;;;;;5.10;4.03;;;17.00;96.50;;;;;;5045365;28;20473;-68
2022/07/01 05:46:33;;;;;;;5.07;3.70;;;17.00;96.90;;;;;;5044611;28;20450;-68
2022/07/01 05:49:00;;;;;;;4.83;4.00;;;17.00;96.30;;;;;;5044144;28;20454;-67
2022/07/01 05:51:27;;;;;;;5.53;3.90;;;16.90;96.70;;;;;;5044743;28;20516;-67
2022/07/01 05:53:53;;;;;;;4.13;3.73;;;16.90;96.30;;;;;;5045495;28;20563;-68
2022/07/01 05:56:21;;;;;;;6.93;4.40;;;17.00;96.30;;;;;;5045680;28;20478;-67
2022/07/01 05:58:48;;;;;;;5.50;3.60;;;17.10;96.50;;;;;;5045598;28;20442;-67
2022/07/01 06:01:15;;;;;;;5.20;3.93;;;17.20;96.80;;;;;;5044176;28;20447;-67
2022/07/01 06:03:42;;;;;;;4.70;3.93;;;17.20;96.20;;;;;;5038932;28;20500;-67
2022/07/01 06:06:09;;;;;;;5.70;4.00;;;17.30;96.50;;;;;;5038964;28;20446;-67
2022/07/01 06:08:36;;;;;;;8.17;4.80;;;17.30;95.60;;;;;;5039154;28;20825;-67
2022/07/01 06:11:03;;;;;;;3.93;3.60;;;17.30;96.10;;;;;;5042019;28;20466;-67
2022/07/01 06:13:32;;;;;;;7.20;4.03;;;17.30;96.00;;;;;;5045978;28;20493;-67
2022/07/01 06:15:59;;;;;;;5.30;3.63;;;17.30;96.40;;;;;;5045276;28;20489;-67
2022/07/01 06:18:26;;;;;;;4.53;3.63;;;17.40;96.60;;;;;;5045673;28;20446;-68
2022/07/01 06:20:53;;;;;;;5.20;3.97;;;17.30;95.90;;;;;;5045658;28;20466;-68
2022/07/01 06:23:20;;;;;;;4.60;3.50;;;17.30;95.60;;;;;;5044981;28;20447;-68
2022/07/01 06:25:46;;;;;;;4.73;3.50;;;17.30;95.60;;;;;;5045601;28;20447;-67
2022/07/01 06:28:14;;;;;;;9.17;4.10;;;17.40;95.60;;;;;;5046893;28;20950;-67
2022/07/01 06:30:43;;;;;;;3.73;3.20;;;17.40;95.90;;;;;;5047408;28;20450;-67
2022/07/01 06:33:12;;;;;;;7.33;4.77;;;17.50;95.80;;;;;;5045855;28;20442;-67
2022/07/01 06:35:38;;;;;;;8.63;4.47;;;17.60;95.10;;;;;;5040963;28;20500;-67
2022/07/01 06:38:05;;;;;;;6.63;4.23;;;17.50;95.10;;;;;;5040563;28;20450;-68
2022/07/01 06:40:32;;;;;;;5.23;4.20;;;17.50;95.30;;;;;;5040099;28;20454;-67
2022/07/01 06:42:59;;;;;;;5.13;4.50;;;17.60;95.50;;;;;;5039817;28;20447;-67
2022/07/01 06:45:26;;;;;;;8.10;4.13;;;17.50;95.50;;;;;;5040490;28;20476;-68
2022/07/01 06:47:54;;;;;;;5.53;4.40;;;17.50;95.20;;;;;;5041003;28;20439;-68
2022/07/01 06:50:21;;;;;;;6.07;4.83;;;17.60;95.70;;;;;;5040275;28;20450;-68
2022/07/01 06:52:47;;;;;;;5.27;4.50;;;17.80;95.10;;;;;;5040274;28;20528;-68
2022/07/01 06:55:14;;;;;;;4.90;4.47;;;18.00;94.80;;;;;;5041140;28;20481;-68
2022/07/01 06:57:41;;;;;;;5.40;4.57;;;18.20;95.10;;;;;;5041399;28;20490;-68
2022/07/01 07:00:09;;;;;;;6.73;5.63;;;18.40;94.60;;;;;;5041351;28;20459;-68
2022/07/01 07:02:36;;;;;;;5.30;4.53;;;18.40;93.80;;;;;;5041669;28;20455;-68
2022/07/01 07:05:05;;;;;;;7.83;5.73;;;18.40;93.80;;;;;;5041052;28;20493;-68
2022/07/01 07:07:31;;;;;;;9.00;5.47;;;18.50;93.80;;;;;;5040883;28;20457;-68
2022/07/01 07:09:58;;;;;;;9.33;4.93;;;18.60;93.60;;;;;;5040934;28;20465;-67
2022/07/01 07:12:25;;;;;;;5.50;5.00;;;18.60;92.70;;;;;;5040532;28;20465;-67
2022/07/01 07:14:52;;;;;;;6.43;5.40;;;18.60;91.90;;;;;;5041186;28;20553;-67
2022/07/01 07:17:19;;;;;;;5.60;4.83;;;18.70;92.60;;;;;;5040789;28;20581;-67
2022/07/01 07:19:46;;;;;;;9.53;4.60;;;18.90;92.40;;;;;;5041035;28;20458;-68
2022/07/01 07:22:14;;;;;;;6.80;4.60;;;19.20;92.30;;;;;;5040864;28;20457;-68
2022/07/01 07:24:41;;;;;;;5.77;4.40;;;19.40;91.90;;;;;;5041253;28;20545;-68
2022/07/01 07:27:08;;;;;;;6.73;4.73;;;19.60;91.30;;;;;;5041298;28;20427;-68
2022/07/01 07:29:34;;;;;;;8.33;4.03;;;19.80;90.90;;;;;;5040213;28;20457;-68
2022/07/01 07:32:01;;;;;;;9.67;4.53;;;19.90;90.90;;;;;;5040964;28;20454;-67
2022/07/01 07:34:28;;;;;;;4.90;3.40;;;20.10;90.30;;;;;;5044381;28;20470;-67
2022/07/01 07:36:55;;;;;;;5.57;3.80;;;20.30;90.40;;;;;;5044616;28;20485;-68
2022/07/01 07:39:23;;;;;;;3.97;3.27;;;20.50;88.40;;;;;;5044085;28;20446;-68
2022/07/01 07:41:50;;;;;;;6.53;3.50;;;20.40;85.00;;;;;;5038390;28;20473;-68
2022/07/01 07:44:17;;;;;;;5.20;3.53;;;20.30;85.90;;;;;;5040229;28;20478;-67
2022/07/01 07:46:44;;;;;;;4.00;3.23;;;20.20;86.40;;;;;;5044039;28;20945;-67
2022/07/01 07:49:10;;;;;;;4.63;3.80;;;20.30;86.30;;;;;;5043895;28;20450;-68
2022/07/01 07:51:37;;;;;;;6.13;3.27;;;20.30;86.50;;;;;;5044185;28;20454;-68
2022/07/01 07:54:04;;;;;;;5.47;3.20;;;20.40;85.10;;;;;;5043937;28;20969;-68
2022/07/01 07:56:32;;;;;;;7.87;3.03;;;20.40;83.10;;;;;;5044287;28;20482;-68
2022/07/01 07:58:59;;;;;;;5.13;2.60;;;20.40;84.40;;;;;;5043843;28;20454;-68
2022/07/01 08:01:26;;;;;;;4.30;2.70;;;20.50;86.40;;;;;;5043868;28;20450;-68
2022/07/01 08:03:53;;;;;;;3.80;2.50;;;20.70;85.30;;;;;;5043716;28;20470;-68
2022/07/01 08:06:20;;;;;;;4.67;2.33;;;20.90;82.60;;;;;;5043985;28;20458;-68
2022/07/01 08:08:47;;;;;;;2.63;2.07;;;21.00;81.60;;;;;;5044010;28;21048;-68
2022/07/01 08:11:14;;;;;;;6.87;2.30;;;21.00;81.60;;;;;;5044252;28;20430;-68
2022/07/01 08:13:43;;;;;;;2.67;1.63;;;21.00;80.20;;;;;;5044006;28;20544;-68
2022/07/01 08:16:10;;;;;;;4.70;2.83;;;21.00;81.00;;;;;;5042616;28;20470;-68
2022/07/01 08:18:36;;;;;;;4.67;2.10;;;21.10;80.50;;;;;;5042798;28;20458;-68
2022/07/01 08:21:03;;;;;;;5.67;2.07;;;21.10;82.30;;;;;;5042468;28;20457;-68
2022/07/01 08:23:30;;;;;;;5.80;1.97;;;21.30;80.10;;;;;;5042252;28;20467;-68
2022/07/01 08:25:57;;;;;;;4.03;1.40;;;21.40;77.70;;;;;;5042425;28;20450;-68
2022/07/01 08:28:24;;;;;;;7.10;2.33;;;21.50;77.00;;;;;;5042079;28;20447;-68
2022/07/01 08:30:52;;;;;;;4.73;2.30;;;21.50;78.90;;;;;;5041653;28;20455;-68
2022/07/01 08:33:19;;;;;;;4.33;1.77;;;21.60;77.90;;;;;;5041484;28;20465;-68
2022/07/01 08:35:46;;;;;;;3.93;1.77;;;21.70;76.70;;;;;;5042271;28;20454;-68
2022/07/01 08:38:13;;;;;;;5.10;2.50;;;21.80;75.80;;;;;;5042025;28;20486;-68
2022/07/01 08:40:41;;;;;;;3.67;1.77;;;22.00;74.60;;;;;;5041717;28;20454;-68
2022/07/01 08:43:08;;;;;;;4.70;1.80;;;22.20;74.70;;;;;;5041703;28;20938;-68
2022/07/01 08:45:37;;;;;;;2.63;1.60;;;22.40;72.30;;;;;;5039687;28;20447;-68
2022/07/01 08:48:06;;;;;;;4.60;1.60;;;22.50;68.80;;;;;;5041968;28;20459;-68
2022/07/01 08:50:36;;;;;;;6.43;1.83;;;22.80;69.20;;;;;;5041654;28;20970;-68
2022/07/01 08:53:03;;;;;;;3.50;1.40;;;23.10;70.40;;;;;;5041793;28;20447;-68
2022/07/01 08:55:30;;;;;;;3.40;1.60;;;23.30;69.50;;;;;;5041593;28;20463;-68
2022/07/01 08:57:57;;;;;;;2.73;1.40;;;23.50;66.30;;;;;;5040704;28;20490;-68
2022/07/01 09:00:30;;;;;;;6.90;2.30;;;23.50;66.00;;;;;;5040567;28;20481;-68
2022/07/01 09:02:58;;;;;;;2.63;1.73;;;23.30;63.60;;;;;;5041439;28;20438;-68
2022/07/01 09:05:29;;;;;;;3.20;1.57;;;23.10;61.70;;;;;;5041311;28;20467;-68
2022/07/01 09:07:58;;;;;;;3.27;1.77;;;23.00;64.60;;;;;;5042705;28;20549;-68
2022/07/01 09:10:25;;;;;;;3.60;1.40;;;22.80;63.40;;;;;;5041174;28;20565;-68
2022/07/01 09:12:52;;;;;;;5.17;1.70;;;22.80;63.50;;;;;;5041056;28;20455;-68
2022/07/01 09:15:26;;;;;;;2.93;1.60;;;22.70;63.30;;;;;;5041008;28;20466;-68
2022/07/01 09:17:55;;;;;;;2.20;1.60;;;22.60;64.90;;;;;;5040497;28;20481;-68
2022/07/01 09:20:30;;;;;;;3.13;1.33;;;22.70;65.20;;;;;;5040776;28;20450;-68
2022/07/01 09:23:02;;;;;;;3.47;2.00;;;22.70;61.80;;;;;;5041125;28;20434;-68
2022/07/01 09:25:31;;;;;;;4.90;1.83;;;22.80;62.10;;;;;;5040603;28;20442;-68
2022/07/01 09:28:06;;;;;;;2.13;1.33;;;22.60;59.00;;;;;;5041110;28;20438;-68
2022/07/01 09:30:33;;;;;;;2.97;1.47;;;22.60;60.40;;;;;;5041667;28;20450;-68
2022/07/01 09:33:08;;;;;;;3.30;1.53;;;22.80;63.90;;;;;;5042110;28;20455;-68
2022/07/01 09:35:36;;;;;;;4.03;1.23;;;23.10;62.40;;;;;;5041930;28;20449;-68
2022/07/01 09:38:03;;;;;;;2.97;1.63;;;23.40;58.60;;;;;;5041516;28;20486;-68
2022/07/01 09:40:47;;;;;;;3.93;1.73;;;23.50;59.70;;;;;;5040828;28;20876;-69
2022/07/01 09:43:16;;;;;;;2.57;1.40;;;23.50;57.90;;;;;;5042319;28;20903;-68
2022/07/01 09:45:50;;;;;;;2.10;1.30;;;23.40;58.70;;;;;;5042099;28;20446;-68
2022/07/01 09:48:17;;;;;;;2.53;1.17;;;23.40;59.50;;;;;;5042332;28;20430;-68
2022/07/01 09:50:46;;;;;;;5.63;1.83;;;23.40;60.00;;;;;;5040677;28;20537;-68
2022/07/01 09:53:14;;;;;;;4.50;1.57;;;23.40;58.80;;;;;;5040238;28;20450;-68
2022/07/01 09:55:41;;;;;;;2.67;1.43;;;23.40;58.50;;;;;;5038387;28;20453;-69
2022/07/01 09:58:08;;;;;;;4.73;1.77;;;23.30;58.00;;;;;;5039944;28;20826;-68
2022/07/01 10:00:37;;;;;;;2.33;0.90;;;23.40;59.60;;;;;;5039945;28;20450;-68
2022/07/01 10:03:05;;;;;;;1.93;1.13;;;23.60;59.90;;;;;;5039443;28;20457;-68
2022/07/01 10:05:36;;;;;;;4.10;1.60;;;23.90;58.30;;;;;;5039295;28;20954;-68
2022/07/01 10:08:19;;;;;;;3.83;1.20;;;24.30;56.70;;;;;;5039434;28;20902;-68
2022/07/01 10:10:52;;;;;;;2.80;0.90;;;24.70;55.30;;;;;;5038919;28;20443;-68
2022/07/01 10:13:25;;;;;;;2.80;0.90;;;24.80;52.80;;;;;;5038703;28;20918;-69
2022/07/01 10:15:53;;;;;;;1.87;0.87;;;24.80;50.10;;;;;;5038421;28;20932;-68
2022/07/01 10:18:22;;;;;;;1.47;1.00;;;24.90;51.70;;;;;;5038955;28;20517;-68
2022/07/01 10:20:49;;;;;;;2.57;0.87;;;24.90;51.00;;;;;;5039065;28;20454;-68
2022/07/01 10:23:21;;;;;;;4.90;0.97;;;25.10;49.50;;;;;;5038983;28;20451;-68
2022/07/01 10:25:49;;;;;;;2.43;0.70;;;25.40;49.90;;;;;;5039288;28;20431;-68
2022/07/01 10:28:25;;;;;;;4.67;1.10;;;25.50;50.10;;;;;;5038710;28;20453;-68
2022/07/01 10:31:03;;;;;;;2.20;0.77;;;25.70;49.00;;;;;;5039624;28;20445;-68
2022/07/01 10:33:43;;;;;;;1.37;0.67;;;25.90;46.20;;;;;;5036573;28;20553;-68
2022/07/01 10:36:15;;;;;;;1.43;0.77;;;26.30;46.20;;;;;;5038546;28;20977;-68
2022/07/01 10:39:13;;;;;;;3.20;1.10;;;26.90;43.80;;;;;;5040713;28;20463;-68
2022/07/01 10:41:42;;;;;;;0.80;0.73;;;27.70;44.20;;;;;;5038890;28;20484;-69
2022/07/01 10:44:11;;;;;;;2.50;0.80;;;28.30;42.90;;;;;;5039427;28;20477;-68
2022/07/01 10:46:43;;;;;;;2.60;1.10;;;29.00;42.50;;;;;;5039307;28;20457;-69
2022/07/01 10:49:12;;;;;;;1.77;0.80;;;29.30;39.80;;;;;;5038702;28;20454;-69
2022/07/01 10:51:49;;;;;;;2.53;1.10;;;29.50;38.50;;;;;;5038575;28;20455;-68
2022/07/01 10:54:48;;;;;;;2.33;0.93;;;29.90;37.00;;;;;;5038338;28;21035;-68
2022/07/01 10:57:29;;;;;;;3.23;0.93;;;29.60;39.30;;;;;;5038041;28;20482;-69
2022/07/01 11:00:13;;;;;;;2.07;0.83;;;29.60;37.50;;;;;;5038234;28;20442;-69
2022/07/01 11:02:40;;;;;;;1.40;0.70;;;29.80;35.80;;;;;;5037060;28;20450;-69
2022/07/01 11:05:10;;;;;;;3.13;0.70;;;30.20;34.40;;;;;;5038139;28;20846;-69
2022/07/01 11:07:38;;;;;;;1.43;0.70;;;30.50;35.20;;;;;;5038091;28;20820;-69
2022/07/01 11:10:10;;;;;;;2.50;0.73;;;31.00;32.70;;;;;;5038254;28;20443;-69
2022/07/01 11:12:37;;;;;;;5.43;1.00;;;31.30;32.70;;;;;;5037390;28;20542;-70
2022/07/01 11:15:05;;;;;;;1.37;0.80;;;31.90;32.30;;;;;;5037004;28;20481;-70
2022/07/01 11:17:33;;;;;;;4.43;0.70;;;32.60;30.40;;;;;;5034991;28;20544;-70
2022/07/01 11:20:02;;;;;;;4.73;0.73;;;32.70;29.60;;;;;;5035666;28;20446;-69
2022/07/01 11:22:31;;;;;;;2.93;0.73;;;31.80;30.50;;;;;;5034359;28;20826;-69
2022/07/01 11:24:59;;;;;;;2.03;0.90;;;32.00;31.30;;;;;;5034296;28;20580;-69
2022/07/01 11:27:28;;;;;;;7.57;0.80;;;32.60;30.50;;;;;;5037336;28;20446;-69
2022/07/01 11:29:58;;;;;;;1.83;0.97;;;33.10;27.60;;;;;;5037338;28;20454;-69
2022/07/01 11:32:25;;;;;;;1.20;0.80;;;33.30;28.80;;;;;;5034934;28;20445;-69
2022/07/01 11:34:52;;;;;;;3.20;0.73;;;32.60;29.00;;;;;;5035127;28;20462;-70
2022/07/01 11:40:06;;;;;;;1.67;0.57;;;32.50;30.70;;;;;;5023046;28;20974;-69
2022/07/01 11:42:34;;;;;;;2.13;0.90;;;32.90;30.40;;;;;;5034990;28;20519;-69
2022/07/01 11:45:01;;;;;;;1.97;0.60;;;33.00;31.00;;;;;;5035187;28;20989;-69
2022/07/01 11:47:29;;;;;;;1.00;0.50;;;33.10;27.60;;;;;;5037439;28;20446;-69
2022/07/01 11:49:57;;;;;;;3.90;0.90;;;33.30;28.70;;;;;;5037437;28;20450;-69
2022/07/01 11:52:25;;;;;;;2.00;0.90;;;33.50;28.20;;;;;;5035706;28;20460;-69
2022/07/01 11:54:53;;;;;;;1.73;0.80;;;33.90;28.30;;;;;;5034935;28;20470;-70
2022/07/01 11:57:22;;;;;;;1.47;0.60;;;34.40;27.10;;;;;;5035104;28;20461;-70
2022/07/01 11:59:52;;;;;;;3.50;0.70;;;34.50;25.70;;;;;;5034597;28;20491;-70
2022/07/01 12:02:21;;;;;;;2.77;0.70;;;34.50;26.80;;;;;;5034720;28;20446;-70
2022/07/01 12:04:49;;;;;;;3.50;1.00;;;34.60;25.40;;;;;;5034162;28;21012;-70
2022/07/01 12:07:21;;;;;;;3.17;0.90;;;34.90;25.70;;;;;;5034765;28;20469;-70
2022/07/01 12:09:48;;;;;;;1.07;0.40;;;35.00;25.30;;;;;;5034799;28;20442;-70
2022/07/01 12:12:19;;;;;;;3.43;1.00;;;35.50;24.20;;;;;;5034071;28;20793;-70
2022/07/01 12:14:55;;;;;;;10.03;1.07;;;35.80;24.00;;;;;;5033999;28;20469;-70
2022/07/01 12:17:24;;;;;;;2.20;1.00;;;35.60;23.90;;;;;;5034080;28;20441;-70
2022/07/01 12:19:52;;;;;;;1.27;0.60;;;34.70;25.10;;;;;;5036667;28;20572;-70
2022/07/01 12:22:20;;;;;;;0.90;0.60;;;33.70;26.10;;;;;;5038587;28;20827;-70
2022/07/01 12:24:47;;;;;;;2.03;0.90;;;33.30;26.80;;;;;;5038011;28;20466;-70
2022/07/01 12:27:15;;;;;;;4.60;0.80;;;32.70;27.10;;;;;;5038075;28;20460;-70
2022/07/01 12:29:54;;;;;;;2.93;0.60;;;32.20;28.70;;;;;;5037729;28;20477;-70
2022/07/01 12:32:23;;;;;;;0.87;0.70;;;32.00;28.30;;;;;;5037960;28;20434;-70
2022/07/01 12:34:52;;;;;;;2.20;0.87;;;31.30;30.30;;;;;;5037512;28;20481;-70
2022/07/01 12:37:21;;;;;;;2.30;0.70;;;30.60;32.10;;;;;;5038129;28;20450;-70
2022/07/01 12:39:50;;;;;;;1.63;0.80;;;29.90;33.10;;;;;;5019794;28;20522;-69
2022/07/01 12:42:25;;;;;;;2.40;0.67;;;29.40;33.70;;;;;;5038462;28;20438;-69
2022/07/01 12:44:55;;;;;;;2.10;0.80;;;29.40;34.40;;;;;;5037076;28;20470;-69
2022/07/01 12:47:25;;;;;;;4.00;0.70;;;30.00;32.70;;;;;;5036961;28;20450;-69
2022/07/01 12:50:08;;;;;;;4.40;1.00;;;30.50;33.30;;;;;;5036921;28;20450;-70
2022/07/01 12:52:35;;;;;;;1.10;0.70;;;30.40;32.70;;;;;;5036778;28;20435;-70
2022/07/01 12:55:12;;;;;;;1.90;0.73;;;30.30;31.40;;;;;;5037201;28;20474;-70
2022/07/01 12:57:40;;;;;;;2.73;0.87;;;31.10;30.00;;;;;;5039393;28;20446;-70
2022/07/01 13:00:10;;;;;;;1.13;0.50;;;32.30;29.30;;;;;;5039164;28;20449;-70
2022/07/01 13:02:36;;;;;;;1.23;0.70;;;33.60;27.10;;;;;;5038716;28;20458;-69